Amber, Washington
Current Conditions -  °F | °C
As of 8:58 AM on Tuesday 21 Oct 2014 (Local Time) from KSKA Reporting Station
Overcast Overcast  
Wind Chill: 41°   Ceiling: 600
Heat Index: 46°   Visibility: 10mi
Dew Point: 44°   Wind: 10mph
Humidity: 93%   Direction: 200°SSW
Pressure: 29.89"   Gusts: NA
Location:  47.411°N, 117.628°W
Report Text: KSKA 211558Z AUTO 20009KT 10SM OVC006 08/07 A2989 RMK AO2 SLP127 T00800069 $
Loading
Personal Weather Stations






























Interactive Weather Map
Tropical Storm Tracking
New forecast layout! Learn more

10-Day Weather Forecast

Advertisements
Track Severe Weather on mobile